createdAt,value
2023-05-05T00:00:04.097Z,16.00
2023-05-05T00:02:32.031Z,16.00
2023-05-05T00:05:01.243Z,16.10
2023-05-05T00:07:29.113Z,16.20
2023-05-05T00:09:56.928Z,16.20
2023-05-05T00:12:24.881Z,16.10
2023-05-05T00:14:52.693Z,16.00
2023-05-05T00:17:20.504Z,16.00
2023-05-05T00:19:48.504Z,16.10
2023-05-05T00:22:17.863Z,16.30
2023-05-05T00:24:45.768Z,16.30
2023-05-05T00:27:13.724Z,16.40
2023-05-05T00:29:41.639Z,16.40
2023-05-05T00:32:09.902Z,16.30
2023-05-05T00:34:37.801Z,16.20
2023-05-05T00:37:05.639Z,16.10
2023-05-05T00:39:35.086Z,16.00
2023-05-05T00:42:02.996Z,16.00
2023-05-05T00:44:38.597Z,15.90
2023-05-05T00:47:07.188Z,15.80
2023-05-05T00:49:36.642Z,15.80
2023-05-05T00:52:06.552Z,15.90
2023-05-05T00:54:36.327Z,15.90
2023-05-05T00:57:04.659Z,15.80
2023-05-05T00:59:34.666Z,15.80
2023-05-05T01:02:02.891Z,15.70
2023-05-05T01:04:30.741Z,15.60
2023-05-05T01:07:09.062Z,15.60
2023-05-05T01:09:46.289Z,15.50
2023-05-05T01:12:22.813Z,15.40
2023-05-05T01:15:00.153Z,15.30
2023-05-05T01:17:37.483Z,15.20
2023-05-05T01:20:15.421Z,15.20
2023-05-05T01:22:47.232Z,15.20
2023-05-05T01:25:59.841Z,15.20
2023-05-05T01:28:48.610Z,15.00
2023-05-05T01:31:28.041Z,15.00
2023-05-05T01:34:05.160Z,14.80
2023-05-05T01:36:38.103Z,14.90
2023-05-05T01:39:09.323Z,15.00
2023-05-05T01:41:41.490Z,15.10
2023-05-05T01:44:13.917Z,14.90
2023-05-05T01:46:41.897Z,14.70
2023-05-05T01:49:14.532Z,14.70
2023-05-05T01:51:43.280Z,14.50
2023-05-05T01:54:11.761Z,14.40
2023-05-05T01:56:41.788Z,14.40
2023-05-05T01:59:11.073Z,14.30
2023-05-05T02:01:44.636Z,14.20
2023-05-05T02:04:15.939Z,14.10
2023-05-05T02:06:45.562Z,14.00
2023-05-05T02:09:15.138Z,13.70
2023-05-05T02:11:43.244Z,13.70
2023-05-05T02:14:12.668Z,13.60
2023-05-05T02:16:43.401Z,13.60
2023-05-05T02:19:13.219Z,13.80
2023-05-05T02:21:41.834Z,13.80
2023-05-05T02:24:10.214Z,13.90
2023-05-05T02:26:41.616Z,13.90
2023-05-05T02:29:15.821Z,14.00
2023-05-05T02:31:47.535Z,13.80
2023-05-05T02:34:19.982Z,13.70
2023-05-05T02:36:51.704Z,13.70
2023-05-05T02:39:28.254Z,13.60
2023-05-05T02:41:58.013Z,13.50
2023-05-05T02:44:28.721Z,13.50
2023-05-05T02:46:57.584Z,13.50
2023-05-05T02:49:26.939Z,13.60
2023-05-05T02:51:54.822Z,13.60
2023-05-05T02:54:22.946Z,13.80
2023-05-05T02:56:52.002Z,13.80
2023-05-05T02:59:30.956Z,13.80
2023-05-05T03:02:09.250Z,13.70
2023-05-05T03:04:41.435Z,13.60
2023-05-05T03:07:14.278Z,13.50
2023-05-05T03:09:46.982Z,13.40
2023-05-05T03:12:19.288Z,13.30
2023-05-05T03:14:48.147Z,13.30
2023-05-05T03:17:18.415Z,13.20
2023-05-05T03:19:48.750Z,13.20
2023-05-05T03:22:16.765Z,13.00
2023-05-05T03:24:50.224Z,13.10
2023-05-05T03:27:18.156Z,12.90
2023-05-05T03:29:48.940Z,12.90
2023-05-05T03:32:17.084Z,13.00
2023-05-05T03:34:44.935Z,13.00
2023-05-05T03:37:14.226Z,13.10
2023-05-05T03:39:42.137Z,13.10
2023-05-05T03:42:10.105Z,13.10
2023-05-05T03:44:38.058Z,13.10
2023-05-05T03:47:06.468Z,13.20
2023-05-05T03:49:34.353Z,13.10
2023-05-05T03:52:02.233Z,13.00
2023-05-05T03:54:31.772Z,12.90
2023-05-05T03:57:00.135Z,12.90
2023-05-05T03:59:28.244Z,12.70
2023-05-05T04:01:56.188Z,12.70
2023-05-05T04:04:24.156Z,12.60
2023-05-05T04:06:52.053Z,12.50
2023-05-05T04:09:19.915Z,12.50
2023-05-05T04:11:49.357Z,12.60
2023-05-05T04:14:19.398Z,12.70
2023-05-05T04:16:47.293Z,12.70
2023-05-05T04:19:15.181Z,12.90
2023-05-05T04:21:43.091Z,12.90
2023-05-05T04:24:11.245Z,12.90
2023-05-05T04:26:39.178Z,13.00
2023-05-05T04:29:09.752Z,12.90
2023-05-05T04:31:38.009Z,13.00
2023-05-05T04:34:06.193Z,13.10
2023-05-05T04:36:34.632Z,13.20
2023-05-05T04:39:02.696Z,13.10
2023-05-05T04:41:30.893Z,13.10
2023-05-05T04:43:58.916Z,13.10
2023-05-05T04:46:28.427Z,13.20
2023-05-05T04:48:56.360Z,13.30
2023-05-05T04:51:24.422Z,13.40
2023-05-05T04:53:52.424Z,13.40
2023-05-05T04:56:20.453Z,13.60
2023-05-05T04:58:48.422Z,13.60
2023-05-05T05:01:16.435Z,13.70
2023-05-05T05:03:46.081Z,13.80
2023-05-05T05:06:14.187Z,14.10
2023-05-05T05:08:42.430Z,14.20
2023-05-05T05:11:10.431Z,14.40
2023-05-05T05:13:38.335Z,14.70
2023-05-05T05:16:07.974Z,14.90
2023-05-05T05:18:36.027Z,15.00
2023-05-05T05:21:05.646Z,15.00
2023-05-05T05:23:33.774Z,15.10
2023-05-05T05:26:01.792Z,15.10
2023-05-05T05:28:29.873Z,15.10
2023-05-05T05:30:57.938Z,15.20
2023-05-05T05:33:25.861Z,15.20
2023-05-05T05:35:53.830Z,15.30
2023-05-05T05:38:23.292Z,15.40
2023-05-05T05:40:51.164Z,15.50
2023-05-05T05:43:19.100Z,15.70
2023-05-05T05:45:47.597Z,15.70
2023-05-05T05:48:15.544Z,15.80
2023-05-05T05:50:43.583Z,15.90
2023-05-05T05:53:11.585Z,15.80
2023-05-05T05:55:41.058Z,15.90
2023-05-05T05:58:09.061Z,15.90
2023-05-05T06:00:37.056Z,16.00
2023-05-05T06:03:05.290Z,16.00
2023-05-05T06:05:33.905Z,16.30
2023-05-05T06:08:01.860Z,16.30
2023-05-05T06:10:30.029Z,16.40
2023-05-05T06:12:59.778Z,16.50
2023-05-05T06:15:27.838Z,16.70
2023-05-05T06:17:55.859Z,16.70
2023-05-05T06:20:23.958Z,16.90
2023-05-05T06:22:51.894Z,17.10
2023-05-05T06:25:33.506Z,17.20
2023-05-05T06:28:02.957Z,17.30
2023-05-05T06:30:30.897Z,17.40
2023-05-05T06:32:58.978Z,17.60
2023-05-05T06:35:27.155Z,17.70
2023-05-05T06:37:54.956Z,17.70
2023-05-05T06:40:23.707Z,17.80
2023-05-05T06:42:51.610Z,17.80
2023-05-05T06:45:22.983Z,17.80
2023-05-05T06:48:06.429Z,17.90
2023-05-05T06:50:34.319Z,17.90
2023-05-05T06:53:02.284Z,18.10
2023-05-05T06:55:30.355Z,18.20
2023-05-05T06:57:58.205Z,18.30
2023-05-05T07:00:27.714Z,18.40
2023-05-05T07:02:55.752Z,18.30
2023-05-05T07:05:23.762Z,18.20
2023-05-05T07:07:53.636Z,18.10
2023-05-05T07:10:23.157Z,18.30
2023-05-05T07:12:51.905Z,18.40
2023-05-05T07:15:28.528Z,18.60
2023-05-05T07:17:59.377Z,18.70
2023-05-05T07:20:27.705Z,18.80
2023-05-05T07:22:55.922Z,18.60
2023-05-05T07:25:23.938Z,18.40
2023-05-05T07:27:52.348Z,18.20
2023-05-05T07:30:21.048Z,18.10
2023-05-05T07:32:49.376Z,18.00
2023-05-05T07:35:18.865Z,18.00
2023-05-05T07:37:46.845Z,18.00
2023-05-05T07:40:17.134Z,18.20
2023-05-05T07:42:45.061Z,18.30
2023-05-05T07:45:13.032Z,18.60
2023-05-05T07:47:41.630Z,18.80
2023-05-05T07:50:10.617Z,19.10
2023-05-05T07:55:11.540Z,19.50
2023-05-05T07:57:39.892Z,19.60
2023-05-05T08:00:11.930Z,19.70
2023-05-05T08:02:40.138Z,19.90
2023-05-05T08:05:09.804Z,20.20
2023-05-05T08:07:41.504Z,20.30
2023-05-05T08:10:10.954Z,20.40
2023-05-05T08:12:48.341Z,20.70
2023-05-05T08:15:17.560Z,20.90
2023-05-05T08:17:48.137Z,21.10
2023-05-05T08:20:16.895Z,21.40
2023-05-05T08:22:47.679Z,21.50
2023-05-05T08:25:15.896Z,21.50
2023-05-05T08:27:44.402Z,21.60
2023-05-05T08:30:13.059Z,21.80
2023-05-05T08:32:41.248Z,22.00
2023-05-05T08:35:10.054Z,22.20
2023-05-05T08:37:38.297Z,22.50
2023-05-05T08:40:09.138Z,22.60
2023-05-05T08:42:39.166Z,22.90
2023-05-05T08:45:09.433Z,23.10
2023-05-05T08:47:39.483Z,23.20
2023-05-05T08:50:11.267Z,23.20
2023-05-05T08:52:42.106Z,23.10
2023-05-05T08:55:24.259Z,23.00
2023-05-05T08:57:54.484Z,23.00
2023-05-05T09:00:23.021Z,23.10
2023-05-05T09:02:51.680Z,23.10
2023-05-05T09:05:20.536Z,23.30
2023-05-05T09:07:48.962Z,23.30
2023-05-05T09:10:18.595Z,23.50
2023-05-05T09:12:46.605Z,23.90
2023-05-05T09:15:16.315Z,24.20
2023-05-05T09:17:44.762Z,24.50
2023-05-05T09:20:15.086Z,24.50
2023-05-05T09:22:44.719Z,24.90
2023-05-05T09:25:14.593Z,25.30
2023-05-05T09:27:46.345Z,25.60
2023-05-05T09:30:17.254Z,25.50
2023-05-05T09:32:50.768Z,25.30
2023-05-05T09:35:20.462Z,25.40
2023-05-05T09:37:48.795Z,26.10
2023-05-05T09:40:20.903Z,26.50
2023-05-05T09:43:02.113Z,26.80
2023-05-05T09:45:30.259Z,27.40
2023-05-05T09:48:00.176Z,27.30
2023-05-05T09:50:30.893Z,27.00
2023-05-05T09:53:02.353Z,26.70
2023-05-05T09:55:31.979Z,26.80
2023-05-05T09:58:18.430Z,26.60
2023-05-05T10:00:47.508Z,26.40
2023-05-05T10:03:15.486Z,26.40
2023-05-05T10:05:52.423Z,26.40
2023-05-05T10:08:21.950Z,26.10
2023-05-05T10:10:54.672Z,25.70
2023-05-05T10:13:25.326Z,25.40
2023-05-05T10:15:54.775Z,25.00
2023-05-05T10:18:24.508Z,24.70
2023-05-05T10:20:59.261Z,24.50
2023-05-05T10:23:33.314Z,24.40
2023-05-05T10:26:04.445Z,24.30
2023-05-05T10:28:45.776Z,24.20
2023-05-05T10:31:26.083Z,24.20
2023-05-05T10:33:59.855Z,24.30
2023-05-05T10:36:28.507Z,24.20
2023-05-05T10:38:57.894Z,24.10
2023-05-05T10:41:26.815Z,24.00
2023-05-05T10:43:57.347Z,24.10
2023-05-05T10:46:26.187Z,24.30
2023-05-05T10:49:00.965Z,24.50
2023-05-05T10:51:40.305Z,24.50
2023-05-05T10:54:15.160Z,24.20
2023-05-05T10:56:43.873Z,24.00
2023-05-05T10:59:51.340Z,23.80
2023-05-05T11:02:22.477Z,23.90
2023-05-05T11:05:17.755Z,24.30
2023-05-05T11:07:46.694Z,24.50
2023-05-05T11:10:16.190Z,24.70
2023-05-05T11:13:19.050Z,25.00
2023-05-05T11:15:47.142Z,25.30
2023-05-05T11:18:39.211Z,25.50
2023-05-05T11:21:18.405Z,25.90
2023-05-05T11:23:48.658Z,26.10
2023-05-05T11:26:18.053Z,26.20
2023-05-05T11:29:02.789Z,26.30
2023-05-05T11:31:31.688Z,26.50
2023-05-05T11:34:29.466Z,26.40
2023-05-05T11:37:01.196Z,26.00
2023-05-05T11:39:39.987Z,25.40
2023-05-05T11:42:31.820Z,24.90
2023-05-05T11:45:00.274Z,24.50
2023-05-05T11:47:32.531Z,24.20
2023-05-05T11:50:18.295Z,24.00
2023-05-05T11:52:46.704Z,23.90
2023-05-05T11:55:20.901Z,24.10
2023-05-05T11:57:48.936Z,24.50
2023-05-05T12:00:17.683Z,24.90
2023-05-05T12:02:45.965Z,25.30
2023-05-05T12:05:20.717Z,25.80
2023-05-05T12:07:48.943Z,26.40
2023-05-05T12:10:24.886Z,26.50
2023-05-05T12:12:55.974Z,26.70
2023-05-05T12:15:32.645Z,26.80
2023-05-05T12:18:02.829Z,26.70
2023-05-05T12:20:35.066Z,26.60
2023-05-05T12:23:04.414Z,26.60
2023-05-05T12:25:41.210Z,26.80
2023-05-05T12:28:10.372Z,26.80
2023-05-05T12:30:38.690Z,26.80
2023-05-05T12:33:08.279Z,26.60
2023-05-05T12:35:38.132Z,26.40
2023-05-05T12:38:06.101Z,26.30
2023-05-05T12:40:52.843Z,26.20
2023-05-05T12:43:29.029Z,26.20
2023-05-05T12:46:08.895Z,26.20
2023-05-05T12:48:38.924Z,26.10
2023-05-05T12:51:17.153Z,25.90
2023-05-05T12:53:45.756Z,25.90
2023-05-05T12:56:36.723Z,25.80
2023-05-05T12:59:06.481Z,25.50
2023-05-05T13:01:35.667Z,25.10
2023-05-05T13:04:08.922Z,25.00
2023-05-05T13:06:38.699Z,24.80
2023-05-05T13:09:07.837Z,24.80
2023-05-05T13:11:40.105Z,25.20
2023-05-05T13:14:08.712Z,25.90
2023-05-05T13:16:36.812Z,26.40
2023-05-05T13:19:07.636Z,26.40
2023-05-05T13:21:35.585Z,26.10
2023-05-05T13:24:22.920Z,25.70
2023-05-05T13:26:54.037Z,25.20
2023-05-05T13:29:23.533Z,24.90
2023-05-05T13:31:53.145Z,24.60
2023-05-05T13:34:25.130Z,24.40
2023-05-05T13:36:53.232Z,24.40
2023-05-05T13:39:22.584Z,24.30
2023-05-05T13:41:50.550Z,24.30
2023-05-05T13:44:18.544Z,24.40
2023-05-05T13:46:46.644Z,24.40
2023-05-05T13:49:14.589Z,24.60
2023-05-05T13:51:42.653Z,24.50
2023-05-05T13:54:16.074Z,24.40
2023-05-05T13:56:45.577Z,24.60
2023-05-05T13:59:13.613Z,24.60
2023-05-05T14:01:41.809Z,24.60
2023-05-05T14:04:10.105Z,24.60
2023-05-05T14:06:38.585Z,24.60
2023-05-05T14:09:08.007Z,24.50
2023-05-05T14:11:36.052Z,24.40
2023-05-05T14:14:06.159Z,24.40
2023-05-05T14:16:34.173Z,24.40
2023-05-05T14:19:02.378Z,24.40
2023-05-05T14:21:31.670Z,24.60
2023-05-05T14:23:59.733Z,25.10
2023-05-05T14:26:28.026Z,25.40
2023-05-05T14:28:58.956Z,25.50
2023-05-05T14:31:30.893Z,25.40
2023-05-05T14:33:58.959Z,25.30
2023-05-05T14:36:30.137Z,25.00
2023-05-05T14:38:58.316Z,24.90
2023-05-05T14:41:26.316Z,24.60
2023-05-05T14:43:54.310Z,24.50
2023-05-05T14:46:22.461Z,24.30
2023-05-05T14:48:52.218Z,24.20
2023-05-05T14:51:21.203Z,24.00
2023-05-05T14:53:49.181Z,23.90
2023-05-05T14:56:17.344Z,23.50
2023-05-05T14:58:46.155Z,23.20
2023-05-05T15:01:14.742Z,23.00
2023-05-05T15:03:42.744Z,22.50
2023-05-05T15:06:12.081Z,21.90
2023-05-05T15:08:40.065Z,21.30
2023-05-05T15:11:08.048Z,21.00
2023-05-05T15:13:38.464Z,20.70
2023-05-05T15:16:07.186Z,20.30
2023-05-05T15:18:35.254Z,20.00
2023-05-05T15:21:03.276Z,19.80
2023-05-05T15:23:32.567Z,19.60
2023-05-05T15:26:00.431Z,19.50
2023-05-05T15:28:28.399Z,19.40
2023-05-05T15:30:56.488Z,19.50
2023-05-05T15:33:24.395Z,19.50
2023-05-05T15:35:52.454Z,19.50
2023-05-05T15:38:20.655Z,19.50
2023-05-05T15:40:50.352Z,19.40
2023-05-05T15:43:18.336Z,19.30
2023-05-05T15:45:46.276Z,19.20
2023-05-05T15:48:14.242Z,19.20
2023-05-05T15:50:42.258Z,19.10
2023-05-05T15:53:10.214Z,19.00
2023-05-05T15:55:39.238Z,19.00
2023-05-05T15:58:08.586Z,18.90
2023-05-05T16:00:37.091Z,18.80
2023-05-05T16:03:05.069Z,18.60
2023-05-05T16:05:33.111Z,18.40
2023-05-05T16:08:09.915Z,18.20
2023-05-05T16:10:38.330Z,18.00
2023-05-05T16:13:06.306Z,17.90
2023-05-05T16:15:36.548Z,17.80
2023-05-05T16:18:04.552Z,17.70
2023-05-05T16:20:32.538Z,17.70
2023-05-05T16:23:00.465Z,17.70
2023-05-05T16:25:28.506Z,17.70
2023-05-05T16:27:57.447Z,17.60
2023-05-05T16:30:25.394Z,17.70
2023-05-05T16:32:54.953Z,17.70
2023-05-05T16:35:24.065Z,17.70
2023-05-05T16:37:52.554Z,17.70
2023-05-05T16:40:20.678Z,17.70
2023-05-05T16:42:48.976Z,17.60
2023-05-05T16:45:19.790Z,17.60
2023-05-05T16:47:47.927Z,17.60
2023-05-05T16:50:17.663Z,17.70
2023-05-05T16:52:45.613Z,17.70
2023-05-05T16:55:13.773Z,17.70
2023-05-05T16:57:46.619Z,17.70
2023-05-05T17:00:15.623Z,17.70
2023-05-05T17:02:46.533Z,17.70
2023-05-05T17:05:14.678Z,17.70
2023-05-05T17:07:43.964Z,17.80
2023-05-05T17:10:12.262Z,17.80
2023-05-05T17:12:40.439Z,17.80
2023-05-05T17:15:09.788Z,17.80
2023-05-05T17:17:38.013Z,17.70
2023-05-05T17:20:07.576Z,17.80
2023-05-05T17:22:35.553Z,17.80
2023-05-05T17:25:05.250Z,17.80
2023-05-05T17:27:33.180Z,17.80
2023-05-05T17:30:01.130Z,17.70
2023-05-05T17:32:29.173Z,17.80
2023-05-05T17:34:57.259Z,17.70
2023-05-05T17:37:25.135Z,17.70
2023-05-05T17:39:53.514Z,17.80
2023-05-05T17:42:23.050Z,17.80
2023-05-05T17:44:51.129Z,17.80
2023-05-05T17:47:22.175Z,17.90
2023-05-05T17:49:50.161Z,17.90
2023-05-05T17:52:18.185Z,18.00
2023-05-05T17:54:46.257Z,18.00
2023-05-05T17:57:17.102Z,18.10
2023-05-05T17:59:46.445Z,18.10
2023-05-05T18:02:14.514Z,18.10
2023-05-05T18:04:42.668Z,18.00
2023-05-05T18:07:12.160Z,18.00
2023-05-05T18:09:40.499Z,17.90
2023-05-05T18:12:09.406Z,17.90
2023-05-05T18:14:37.792Z,17.80
2023-05-05T18:17:07.050Z,17.70
2023-05-05T18:19:35.004Z,17.60
2023-05-05T18:22:02.990Z,17.50
2023-05-05T18:24:31.844Z,17.40
2023-05-05T18:27:00.498Z,17.40
2023-05-05T18:29:35.126Z,17.40
2023-05-05T18:32:03.155Z,17.40
2023-05-05T18:34:32.758Z,17.50
2023-05-05T18:37:00.664Z,17.50
2023-05-05T18:39:28.618Z,17.60
2023-05-05T18:41:56.774Z,17.60
2023-05-05T18:44:24.731Z,17.60
2023-05-05T18:46:52.792Z,17.70
2023-05-05T18:49:20.798Z,17.60
2023-05-05T18:51:50.323Z,17.50
2023-05-05T18:54:18.275Z,17.50
2023-05-05T18:56:46.210Z,17.60
2023-05-05T18:59:14.218Z,17.70
2023-05-05T19:01:44.622Z,17.60
2023-05-05T19:04:26.809Z,17.60
2023-05-05T19:07:00.081Z,17.60
2023-05-05T19:09:28.186Z,17.50
2023-05-05T19:11:56.365Z,17.50
2023-05-05T19:14:24.422Z,17.40
2023-05-05T19:19:44.190Z,17.30
2023-05-05T19:22:13.712Z,17.40
2023-05-05T19:24:46.464Z,17.30
2023-05-05T19:27:16.717Z,17.30
2023-05-05T19:29:46.158Z,17.20
2023-05-05T19:32:14.100Z,17.20
2023-05-05T19:34:42.868Z,17.20
2023-05-05T19:37:10.942Z,17.20
2023-05-05T19:39:40.354Z,17.20
2023-05-05T19:42:08.558Z,17.10
2023-05-05T19:44:36.586Z,17.10
2023-05-05T19:47:05.356Z,17.10
2023-05-05T19:49:33.215Z,17.10
2023-05-05T19:52:01.263Z,17.10
2023-05-05T19:54:29.353Z,17.10
2023-05-05T19:56:58.679Z,17.10
2023-05-05T19:59:26.681Z,17.10
2023-05-05T20:01:54.607Z,17.00
2023-05-05T20:04:22.589Z,17.10
2023-05-05T20:06:50.526Z,17.00
2023-05-05T20:09:18.850Z,16.90
2023-05-05T20:11:46.704Z,16.90
2023-05-05T20:14:15.961Z,16.90
2023-05-05T20:16:43.903Z,16.90
2023-05-05T20:19:11.844Z,16.80
2023-05-05T20:21:40.097Z,16.70
2023-05-05T20:24:08.874Z,16.70
2023-05-05T20:26:36.827Z,16.60
2023-05-05T20:29:04.864Z,16.60
2023-05-05T20:31:34.867Z,16.50
2023-05-05T20:34:02.957Z,16.40
2023-05-05T20:36:30.841Z,16.40
2023-05-05T20:38:58.786Z,16.40
2023-05-05T20:41:26.684Z,16.30
2023-05-05T20:43:54.567Z,16.20
2023-05-05T20:46:22.538Z,16.10
2023-05-05T20:48:51.761Z,16.10
2023-05-05T20:51:20.222Z,16.10
2023-05-05T20:53:48.163Z,16.00
2023-05-05T20:56:16.035Z,16.00
2023-05-05T20:58:43.963Z,15.90
2023-05-05T21:01:12.749Z,16.00
2023-05-05T21:03:40.688Z,16.00
2023-05-05T21:06:09.985Z,15.90
2023-05-05T21:08:39.477Z,15.90
2023-05-05T21:11:10.191Z,15.80
2023-05-05T21:13:38.178Z,15.80
2023-05-05T21:16:06.694Z,15.70
2023-05-05T21:18:34.560Z,15.60
2023-05-05T21:21:02.417Z,15.70
2023-05-05T21:23:32.020Z,15.60
2023-05-05T21:26:00.280Z,15.50
2023-05-05T21:28:28.125Z,15.60
2023-05-05T21:31:19.931Z,15.50
2023-05-05T21:33:44.273Z,15.50
2023-05-05T21:36:14.983Z,15.40
2023-05-05T21:38:44.497Z,15.40
2023-05-05T21:41:12.421Z,15.40
2023-05-05T21:43:40.278Z,15.40
2023-05-05T21:46:08.169Z,15.40
2023-05-05T21:48:38.769Z,15.40
2023-05-05T21:51:06.970Z,15.40
2023-05-05T21:53:37.667Z,15.30
2023-05-05T21:56:08.274Z,15.30
2023-05-05T21:58:36.144Z,15.30
2023-05-05T22:01:04.094Z,15.30
2023-05-05T22:03:32.193Z,15.20
2023-05-05T22:06:00.555Z,15.20
2023-05-05T22:08:28.449Z,15.10
2023-05-05T22:10:56.364Z,15.10
2023-05-05T22:13:25.570Z,15.00
2023-05-05T22:15:53.496Z,14.90
2023-05-05T22:18:21.503Z,14.90
2023-05-05T22:20:49.417Z,14.80
2023-05-05T22:23:17.350Z,14.80
2023-05-05T22:25:45.395Z,14.80
2023-05-05T22:28:13.347Z,14.70
2023-05-05T22:30:42.766Z,14.70
2023-05-05T22:33:10.869Z,14.70
2023-05-05T22:35:38.815Z,14.70
2023-05-05T22:38:07.136Z,14.70
2023-05-05T22:40:35.312Z,14.60
2023-05-05T22:43:03.209Z,14.50
2023-05-05T22:45:31.217Z,14.50
2023-05-05T22:48:00.846Z,14.50
2023-05-05T22:50:28.968Z,14.40
2023-05-05T22:52:57.530Z,14.40
2023-05-05T22:55:25.492Z,14.40
2023-05-05T22:57:53.732Z,14.30
2023-05-05T23:00:21.699Z,14.30
2023-05-05T23:02:49.702Z,14.20
2023-05-05T23:05:19.074Z,14.10
2023-05-05T23:07:46.975Z,14.20
2023-05-05T23:10:14.990Z,14.20
2023-05-05T23:12:42.997Z,14.20
2023-05-05T23:15:12.085Z,14.20
2023-05-05T23:17:40.289Z,14.10
2023-05-05T23:20:11.978Z,14.00
2023-05-05T23:22:41.525Z,13.90
2023-05-05T23:25:10.225Z,13.80
2023-05-05T23:27:40.019Z,13.70
2023-05-05T23:30:09.637Z,13.50
2023-05-05T23:32:37.683Z,13.40
2023-05-05T23:35:06.079Z,13.20
2023-05-05T23:37:34.159Z,13.10
2023-05-05T23:40:03.460Z,13.00
2023-05-05T23:42:31.376Z,12.90
2023-05-05T23:44:59.321Z,12.90
2023-05-05T23:47:27.270Z,12.80
2023-05-05T23:49:55.117Z,12.80
2023-05-05T23:52:23.318Z,12.70
2023-05-05T23:54:51.257Z,12.70
2023-05-05T23:57:20.687Z,12.70
2023-05-05T23:59:48.604Z,12.80
